Home > Products > Valid Products > TAF

000
FTUS45 KCYS 180204 AAA
TAFRWL
TAF AMD
KRWL 180204Z 1802/1824 04010KT 6SM -SN BR SCT007 OVC050
     FM180500 03006KT 1 1/2SM -SN BR OVC007
     FM181500 32010KT 5SM -SN SCT007 OVC012=



000
FTUS45 KCYS 180204 AAA
TAFRWL
TAF AMD
KRWL 180204Z 1802/1824 04010KT 6SM -SN BR SCT007 OVC050
     FM180500 03006KT 1 1/2SM -SN BR OVC007
     FM181500 32010KT 5SM -SN SCT007 OVC012=



000
FTUS45 KCYS 180203 AAA
TAFLAR
TAF AMD
KLAR 180203Z 1802/1824 07012KT 5SM -SN BKN015 OVC060
     FM180400 04009KT 1/2SM SN FG OVC001
     FM181200 36008KT 2SM -SN BR OVC007
     FM181800 34010KT 5SM -SN SCT007 OVC015=



000
FTUS45 KCYS 180203 AAA
TAFLAR
TAF AMD
KLAR 180203Z 1802/1824 07012KT 5SM -SN BKN015 OVC060
     FM180400 04009KT 1/2SM SN FG OVC001
     FM181200 36008KT 2SM -SN BR OVC007
     FM181800 34010KT 5SM -SN SCT007 OVC015=



000
FTUS45 KCYS 180202 AAA
TAFCYS
TAF AMD
KCYS 180202Z 1802/1824 01010KT 6SM -RA SCT005 OVC035
     FM180400 02009KT 2SM -SN BKN005 OVC010
     FM181400 32008KT 4SM -SN BR SCT005 OVC015=



000
FTUS45 KCYS 180202 AAA
TAFCYS
TAF AMD
KCYS 180202Z 1802/1824 01010KT 6SM -RA SCT005 OVC035
     FM180400 02009KT 2SM -SN BKN005 OVC010
     FM181400 32008KT 4SM -SN BR SCT005 OVC015=



000
FTUS45 KCYS 180202 AAA
TAFCYS
TAF AMD
KCYS 180202Z 1802/1824 01010KT 6SM -RA SCT005 OVC035
     FM180400 02009KT 2SM -SN BKN005 OVC010
     FM181400 32008KT 4SM -SN BR SCT005 OVC015=



000
FTUS45 KCYS 180028 CCA
TAFRWL
TAF COR
KRWL 180028Z 1800/1824 04010KT 6SM -SN BR OVC015
      TEMPO 1800/1804 1SM -SN
     FM180400 03006KT 1 1/2SM -SN BR OVC007
     FM181500 32010KT 5SM -SN SCT007 OVC012=



000
FTUS45 KCYS 180028 CCA
TAFRWL
TAF COR
KRWL 180028Z 1800/1824 04010KT 6SM -SN BR OVC015
      TEMPO 1800/1804 1SM -SN
     FM180400 03006KT 1 1/2SM -SN BR OVC007
     FM181500 32010KT 5SM -SN SCT007 OVC012=



000
FTUS45 KCYS 180028 CCA
TAFRWL
TAF COR
KRWL 180028Z 1800/1824 04010KT 6SM -SN BR OVC015
      TEMPO 1800/1804 1SM -SN
     FM180400 03006KT 1 1/2SM -SN BR OVC007
     FM181500 32010KT 5SM -SN SCT007 OVC012=



000
FTUS45 KCYS 172320
TAFLAR
TAF
KLAR 172320Z 1800/1824 07012KT 5SM -SN BKN015 OVC060
     FM180200 04009KT 1/2SM SN FG OVC001
     FM181200 36008KT 2SM -SN BR OVC007
     FM181800 34010KT 5SM -SN SCT007 OVC015=



000
FTUS45 KCYS 172320
TAFRWL
TAF
KRWL 172320Z 1800/1824 04010KT 6SM -SN BR OVC015
     FM180400 03006KT 1 1/2SM -SN BR OVC007
     FM181500 32010KT 5SM -SN SCT007 OVC012=



000
FTUS45 KCYS 172320
TAFLAR
TAF
KLAR 172320Z 1800/1824 07012KT 5SM -SN BKN015 OVC060
     FM180200 04009KT 1/2SM SN FG OVC001
     FM181200 36008KT 2SM -SN BR OVC007
     FM181800 34010KT 5SM -SN SCT007 OVC015=



000
FTUS45 KCYS 172320
TAFCYS
TAF
KCYS 172320Z 1800/1824 30007KT 6SM -RA SCT005 OVC035
     FM180200 02009KT 2SM -SN BKN005 OVC010
     FM181400 32008KT 4SM -SN BR SCT005 OVC015=



000
FTUS45 KCYS 172320
TAFLAR
TAF
KLAR 172320Z 1800/1824 07012KT 5SM -SN BKN015 OVC060
     FM180200 04009KT 1/2SM SN FG OVC001
     FM181200 36008KT 2SM -SN BR OVC007
     FM181800 34010KT 5SM -SN SCT007 OVC015=



000
FTUS45 KCYS 172320
TAFRWL
TAF
KRWL 172320Z 1800/1824 04010KT 6SM -SN BR OVC015
     FM180400 03006KT 1 1/2SM -SN BR OVC007
     FM181500 32010KT 5SM -SN SCT007 OVC012=



000
FTUS45 KCYS 172320
TAFLAR
TAF
KLAR 172320Z 1800/1824 07012KT 5SM -SN BKN015 OVC060
     FM180200 04009KT 1/2SM SN FG OVC001
     FM181200 36008KT 2SM -SN BR OVC007
     FM181800 34010KT 5SM -SN SCT007 OVC015=



000
FTUS45 KCYS 172320
TAFRWL
TAF
KRWL 172320Z 1800/1824 04010KT 6SM -SN BR OVC015
     FM180400 03006KT 1 1/2SM -SN BR OVC007
     FM181500 32010KT 5SM -SN SCT007 OVC012=



000
FTUS45 KCYS 172320
TAFCYS
TAF
KCYS 172320Z 1800/1824 30007KT 6SM -RA SCT005 OVC035
     FM180200 02009KT 2SM -SN BKN005 OVC010
     FM181400 32008KT 4SM -SN BR SCT005 OVC015=



000
FTUS45 KCYS 172320
TAFCYS
TAF
KCYS 172320Z 1800/1824 30007KT 6SM -RA SCT005 OVC035
     FM180200 02009KT 2SM -SN BKN005 OVC010
     FM181400 32008KT 4SM -SN BR SCT005 OVC015=



000
FTUS45 KCYS 172320
TAFCYS
TAF
KCYS 172320Z 1800/1824 30007KT 6SM -RA SCT005 OVC035
     FM180200 02009KT 2SM -SN BKN005 OVC010
     FM181400 32008KT 4SM -SN BR SCT005 OVC015=



000
FTUS45 KCYS 172117 AAA
TAFLAR
TAF AMD
KLAR 172117Z 1721/1818 05015G25KT 1SM -SN BKN015 OVC060
     FM180000 04009KT 1/2SM FG OVC007=



000
FTUS45 KCYS 172117 AAA
TAFLAR
TAF AMD
KLAR 172117Z 1721/1818 05015G25KT 1SM -SN BKN015 OVC060
     FM180000 04009KT 1/2SM FG OVC007=



000
FTUS45 KCYS 172010 AAA
TAFRWL
TAF AMD
KRWL 172010Z 1720/1818 01014KT 6SM BR OVC010
     FM172200 04010KT 6SM -SN BR OVC015
     FM180600 03006KT 1 1/2SM -SN BR OVC007=



000
FTUS45 KCYS 172010 AAA
TAFRWL
TAF AMD
KRWL 172010Z 1720/1818 01014KT 6SM BR OVC010
     FM172200 04010KT 6SM -SN BR OVC015
     FM180600 03006KT 1 1/2SM -SN BR OVC007=



000
FTUS45 KCYS 172010 AAA
TAFRWL
TAF AMD
KRWL 172010Z 1720/1818 01014KT 6SM BR OVC010
     FM172200 04010KT 6SM -SN BR OVC015
     FM180600 03006KT 1 1/2SM -SN BR OVC007=



000
FTUS45 KCYS 172008 AAA
TAFCYS
TAF AMD
KCYS 172008Z 1720/1818 01013G22KT P6SM -SHRA OVC008
      TEMPO 1720/1724 1SM -SN BKN005
     FM180000 36009KT 4SM -RA OVC010
     FM180400 33007KT 1SM -SN BR OVC008=



000
FTUS45 KCYS 171750
TAFRWL
TAF
KRWL 171750Z 1718/1818 05014KT 1SM -SN BR OVC008
     FM172200 04010KT 4SM -SN BR OVC007
     FM180600 03006KT 1 1/2SM -SN BR OVC007=



000
FTUS45 KCYS 171750
TAFCYS
TAF
KCYS 171750Z 1718/1818 01013G22KT P6SM -SHRA OVC008
     FM180000 36009KT 4SM -RA OVC010
     FM180400 33007KT 1SM -SN BR OVC008=



000
FTUS45 KCYS 171750
TAFLAR
TAF
KLAR 171750Z 1718/1818 05015G25KT 4SM -SN BKN015 OVC060
     FM180000 04009KT 1/2SM FG OVC007=



000
FTUS45 KCYS 171750
TAFCYS
TAF
KCYS 171750Z 1718/1818 01013G22KT P6SM -SHRA OVC008
     FM180000 36009KT 4SM -RA OVC010
     FM180400 33007KT 1SM -SN BR OVC008=



000
FTUS45 KCYS 171750
TAFCYS
TAF
KCYS 171750Z 1718/1818 01013G22KT P6SM -SHRA OVC008
     FM180000 36009KT 4SM -RA OVC010
     FM180400 33007KT 1SM -SN BR OVC008=



000
FTUS45 KCYS 171750
TAFLAR
TAF
KLAR 171750Z 1718/1818 05015G25KT 4SM -SN BKN015 OVC060
     FM180000 04009KT 1/2SM FG OVC007=



000
FTUS45 KCYS 171750
TAFRWL
TAF
KRWL 171750Z 1718/1818 05014KT 1SM -SN BR OVC008
     FM172200 04010KT 4SM -SN BR OVC007
     FM180600 03006KT 1 1/2SM -SN BR OVC007=



000
FTUS45 KCYS 171750
TAFLAR
TAF
KLAR 171750Z 1718/1818 05015G25KT 4SM -SN BKN015 OVC060
     FM180000 04009KT 1/2SM FG OVC007=



000
FTUS45 KCYS 171750
TAFRWL
TAF
KRWL 171750Z 1718/1818 05014KT 1SM -SN BR OVC008
     FM172200 04010KT 4SM -SN BR OVC007
     FM180600 03006KT 1 1/2SM -SN BR OVC007=



000
FTUS45 KCYS 171608 AAA
TAFLAR
TAF AMD
KLAR 171608Z 1716/1812 05015G25KT 4SM -SN OVC010
      TEMPO 1716/1718 1SM -SN BR OVC003
     FM171800 03016KT 3SM -SN OVC025
     FM180200 03009KT 1SM -SN BR OVC015=



000
FTUS45 KCYS 171608 AAA
TAFLAR
TAF AMD
KLAR 171608Z 1716/1812 05015G25KT 4SM -SN OVC010
      TEMPO 1716/1718 1SM -SN BR OVC003
     FM171800 03016KT 3SM -SN OVC025
     FM180200 03009KT 1SM -SN BR OVC015=



000
FTUS45 KCYS 171608 AAA
TAFLAR
TAF AMD
KLAR 171608Z 1716/1812 05015G25KT 4SM -SN OVC010
      TEMPO 1716/1718 1SM -SN BR OVC003
     FM171800 03016KT 3SM -SN OVC025
     FM180200 03009KT 1SM -SN BR OVC015=



000
FTUS45 KCYS 171605 AAA
TAFCYS
TAF AMD
KCYS 171605Z 1716/1812 01014G25KT 4SM -SN BR OVC008
      TEMPO 1716/1718 1SM -SN BR OVC004
     FM171800 03015KT 3SM -SN BR OVC012
     FM180200 05010KT 1SM -SN BR OVC009=



000
FTUS45 KCYS 171605 AAA
TAFCYS
TAF AMD
KCYS 171605Z 1716/1812 01014G25KT 4SM -SN BR OVC008
      TEMPO 1716/1718 1SM -SN BR OVC004
     FM171800 03015KT 3SM -SN BR OVC012
     FM180200 05010KT 1SM -SN BR OVC009=



000
FTUS45 KCYS 171124
TAFCYS
TAF
KCYS 171124Z 1712/1812 01014G25KT 4SM -SN BR OVC008
      TEMPO 1712/1716 2SM -SN BR OVC003
     FM171600 03015KT 3SM -SN BR OVC012
     FM180200 05010KT 1SM -SN BR OVC009=



000
FTUS45 KCYS 171124
TAFLAR
TAF
KLAR 171124Z 1712/1812 05015G25KT P6SM OVC025
      TEMPO 1712/1716 2SM -SN BR OVC015
     FM171600 03016KT 3SM -SN OVC025
     FM180200 03009KT 1SM -SN BR OVC015=



000
FTUS45 KCYS 171124
TAFRWL
TAF
KRWL 171124Z 1712/1812 05014KT 3SM -SN BR OVC012
      TEMPO 1712/1716 3/4SM -SN BR OVC008
     FM171600 05014KT 4SM -SN OVC015
     FM180200 03009KT 2SM -SN BR OVC012=



000
FTUS45 KCYS 171124
TAFCYS
TAF
KCYS 171124Z 1712/1812 01014G25KT 4SM -SN BR OVC008
      TEMPO 1712/1716 2SM -SN BR OVC003
     FM171600 03015KT 3SM -SN BR OVC012
     FM180200 05010KT 1SM -SN BR OVC009=



000
FTUS45 KCYS 171124
TAFLAR
TAF
KLAR 171124Z 1712/1812 05015G25KT P6SM OVC025
      TEMPO 1712/1716 2SM -SN BR OVC015
     FM171600 03016KT 3SM -SN OVC025
     FM180200 03009KT 1SM -SN BR OVC015=



000
FTUS45 KCYS 171124
TAFCYS
TAF
KCYS 171124Z 1712/1812 01014G25KT 4SM -SN BR OVC008
      TEMPO 1712/1716 2SM -SN BR OVC003
     FM171600 03015KT 3SM -SN BR OVC012
     FM180200 05010KT 1SM -SN BR OVC009=



000
FTUS45 KCYS 171124
TAFLAR
TAF
KLAR 171124Z 1712/1812 05015G25KT P6SM OVC025
      TEMPO 1712/1716 2SM -SN BR OVC015
     FM171600 03016KT 3SM -SN OVC025
     FM180200 03009KT 1SM -SN BR OVC015=



000
FTUS45 KCYS 171124
TAFCYS
TAF
KCYS 171124Z 1712/1812 01014G25KT 4SM -SN BR OVC008
      TEMPO 1712/1716 2SM -SN BR OVC003
     FM171600 03015KT 3SM -SN BR OVC012
     FM180200 05010KT 1SM -SN BR OVC009=



000
FTUS45 KCYS 171124
TAFRWL
TAF
KRWL 171124Z 1712/1812 05014KT 3SM -SN BR OVC012
      TEMPO 1712/1716 3/4SM -SN BR OVC008
     FM171600 05014KT 4SM -SN OVC015
     FM180200 03009KT 2SM -SN BR OVC012=



000
FTUS45 KCYS 171124
TAFLAR
TAF
KLAR 171124Z 1712/1812 05015G25KT P6SM OVC025
      TEMPO 1712/1716 2SM -SN BR OVC015
     FM171600 03016KT 3SM -SN OVC025
     FM180200 03009KT 1SM -SN BR OVC015=



000
FTUS45 KCYS 171124
TAFRWL
TAF
KRWL 171124Z 1712/1812 05014KT 3SM -SN BR OVC012
      TEMPO 1712/1716 3/4SM -SN BR OVC008
     FM171600 05014KT 4SM -SN OVC015
     FM180200 03009KT 2SM -SN BR OVC012=



000
FTUS45 KCYS 171124
TAFRWL
TAF
KRWL 171124Z 1712/1812 05014KT 3SM -SN BR OVC012
      TEMPO 1712/1716 3/4SM -SN BR OVC008
     FM171600 05014KT 4SM -SN OVC015
     FM180200 03009KT 2SM -SN BR OVC012=



000
FTUS45 KCYS 170824 AAA
TAFRWL
TAF AMD
KRWL 170824Z 1708/1806 02013G23KT P6SM OVC015
      TEMPO 1708/1712 3SM -SN BR OVC008
     FM171700 05015G25KT 5SM -SN SCT005 OVC015=



000
FTUS45 KCYS 170824 AAA
TAFRWL
TAF AMD
KRWL 170824Z 1708/1806 02013G23KT P6SM OVC015
      TEMPO 1708/1712 3SM -SN BR OVC008
     FM171700 05015G25KT 5SM -SN SCT005 OVC015=



000
FTUS45 KCYS 170823 AAA
TAFCYS
TAF AMD
KCYS 170823Z 1708/1806 02012G18KT 3SM -SN OVC013
      TEMPO 1708/1710 3/4SM -SN BR OVC004
     FM171000 04018G28KT 1/4SM +SN BLSN VV002
     FM171800 03012G18KT 2SM RASN OVC004=



000
FTUS45 KCYS 170823 AAA
TAFCYS
TAF AMD
KCYS 170823Z 1708/1806 02012G18KT 3SM -SN OVC013
      TEMPO 1708/1710 3/4SM -SN BR OVC004
     FM171000 04018G28KT 1/4SM +SN BLSN VV002
     FM171800 03012G18KT 2SM RASN OVC004=



000
FTUS45 KCYS 170823 AAA
TAFLAR
TAF AMD
KLAR 170823Z 1708/1806 01009KT 5SM -SN OVC008
      TEMPO 1708/1712 3/4SM -SN BR OVC003
     FM171200 05015KT 1/4SM +SN VV002
     FM172000 06015KT 1SM -SN OVC004=



000
FTUS45 KCYS 170520
TAFLAR
TAF
KLAR 170520Z 1706/1806 01007KT 5SM -SN OVC008
     FM171200 05015KT 1/4SM +SN VV002
     FM172000 06015KT 1SM -SN OVC004=



000
FTUS45 KCYS 170520
TAFCYS
TAF
KCYS 170520Z 1706/1806 02012G18KT 1SM -SN OVC004
     FM171000 04018G28KT 1/4SM +SN BLSN VV002
     FM171800 03012G18KT 2SM RASN OVC004=



000
FTUS45 KCYS 170520
TAFRWL
TAF
KRWL 170520Z 1706/1806 04010KT 6SM -SHSN OVC015
     FM170800 03015G25KT 1SM -SN OVC004
     FM171700 05015G25KT 5SM -SN SCT005 OVC015=



000
FTUS45 KCYS 170520
TAFCYS
TAF
KCYS 170520Z 1706/1806 02012G18KT 1SM -SN OVC004
     FM171000 04018G28KT 1/4SM +SN BLSN VV002
     FM171800 03012G18KT 2SM RASN OVC004=



000
FTUS45 KCYS 170520
TAFRWL
TAF
KRWL 170520Z 1706/1806 04010KT 6SM -SHSN OVC015
     FM170800 03015G25KT 1SM -SN OVC004
     FM171700 05015G25KT 5SM -SN SCT005 OVC015=



000
FTUS45 KCYS 170520
TAFLAR
TAF
KLAR 170520Z 1706/1806 01007KT 5SM -SN OVC008
     FM171200 05015KT 1/4SM +SN VV002
     FM172000 06015KT 1SM -SN OVC004=



000
FTUS45 KCYS 170520
TAFRWL
TAF
KRWL 170520Z 1706/1806 04010KT 6SM -SHSN OVC015
     FM170800 03015G25KT 1SM -SN OVC004
     FM171700 05015G25KT 5SM -SN SCT005 OVC015=



000
FTUS45 KCYS 170520
TAFLAR
TAF
KLAR 170520Z 1706/1806 01007KT 5SM -SN OVC008
     FM171200 05015KT 1/4SM +SN VV002
     FM172000 06015KT 1SM -SN OVC004=



000
FTUS45 KCYS 170520
TAFCYS
TAF
KCYS 170520Z 1706/1806 02012G18KT 1SM -SN OVC004
     FM171000 04018G28KT 1/4SM +SN BLSN VV002
     FM171800 03012G18KT 2SM RASN OVC004=



000
FTUS45 KCYS 170520
TAFCYS
TAF
KCYS 170520Z 1706/1806 02012G18KT 1SM -SN OVC004
     FM171000 04018G28KT 1/4SM +SN BLSN VV002
     FM171800 03012G18KT 2SM RASN OVC004=



000
FTUS45 KCYS 170520
TAFRWL
TAF
KRWL 170520Z 1706/1806 04010KT 6SM -SHSN OVC015
     FM170800 03015G25KT 1SM -SN OVC004
     FM171700 05015G25KT 5SM -SN SCT005 OVC015=



000
FTUS45 KCYS 170520
TAFLAR
TAF
KLAR 170520Z 1706/1806 01007KT 5SM -SN OVC008
     FM171200 05015KT 1/4SM +SN VV002
     FM172000 06015KT 1SM -SN OVC004=



000
FTUS45 KCYS 170216 AAA
TAFLAR
TAF AMD
KLAR 170216Z 1702/1724 35006KT 6SM -SN SCT008 OVC012
     FM170400 36007KT 1SM -SN OVC008
     FM171200 05015KT 1/4SM +SN VV002
     FM172000 06015KT 1SM -SN OVC004=



000
FTUS45 KCYS 170216 AAA
TAFLAR
TAF AMD
KLAR 170216Z 1702/1724 35006KT 6SM -SN SCT008 OVC012
     FM170400 36007KT 1SM -SN OVC008
     FM171200 05015KT 1/4SM +SN VV002
     FM172000 06015KT 1SM -SN OVC004=



000
FTUS45 KCYS 162320
TAFCYS
TAF
KCYS 162320Z 1700/1724 02012G18KT 1SM -SN OVC004
      TEMPO 1700/1704 1/2SM SN VV004
     FM171000 04018G28KT 1/4SM +SN BLSN VV002
     FM171800 03012G18KT 2SM RASN OVC004=



000
FTUS45 KCYS 162320
TAFCYS
TAF
KCYS 162320Z 1700/1724 02012G18KT 1SM -SN OVC004
      TEMPO 1700/1704 1/2SM SN VV004
     FM171000 04018G28KT 1/4SM +SN BLSN VV002
     FM171800 03012G18KT 2SM RASN OVC004=



000
FTUS45 KCYS 162320
TAFRWL
TAF
KRWL 162320Z 1700/1724 04015G25KT 6SM -SHSN OVC015
      TEMPO 1700/1704 1SM -SN BKN008
     FM170400 03015G25KT 1SM -SN OVC004=



000
FTUS45 KCYS 162320
TAFLAR
TAF
KLAR 162320Z 1700/1724 02012KT 1SM -SN OVC008
      TEMPO 1700/1704 1/2SM SN OVC008
     FM171200 05015KT 1/4SM +SN VV002
     FM172000 06015KT 1SM -SN OVC004=



000
FTUS45 KCYS 162320
TAFLAR
TAF
KLAR 162320Z 1700/1724 02012KT 1SM -SN OVC008
      TEMPO 1700/1704 1/2SM SN OVC008
     FM171200 05015KT 1/4SM +SN VV002
     FM172000 06015KT 1SM -SN OVC004=



000
FTUS45 KCYS 162320
TAFCYS
TAF
KCYS 162320Z 1700/1724 02012G18KT 1SM -SN OVC004
      TEMPO 1700/1704 1/2SM SN VV004
     FM171000 04018G28KT 1/4SM +SN BLSN VV002
     FM171800 03012G18KT 2SM RASN OVC004=



000
FTUS45 KCYS 162320
TAFLAR
TAF
KLAR 162320Z 1700/1724 02012KT 1SM -SN OVC008
      TEMPO 1700/1704 1/2SM SN OVC008
     FM171200 05015KT 1/4SM +SN VV002
     FM172000 06015KT 1SM -SN OVC004=



000
FTUS45 KCYS 162320
TAFRWL
TAF
KRWL 162320Z 1700/1724 04015G25KT 6SM -SHSN OVC015
      TEMPO 1700/1704 1SM -SN BKN008
     FM170400 03015G25KT 1SM -SN OVC004=



000
FTUS45 KCYS 162257 AAC
TAFLAR
TAF AMD
KLAR 162257Z 1623/1718 34005KT 1SM -SN OVC008
      TEMPO 1623/1624 1/2SM SN VV008
     FM170300 01018G28KT 1SM -SN OVC003
     FM171000 05020G30KT 1/4SM +SN VV002=



000
FTUS45 KCYS 162257 AAC
TAFLAR
TAF AMD
KLAR 162257Z 1623/1718 34005KT 1SM -SN OVC008
      TEMPO 1623/1624 1/2SM SN VV008
     FM170300 01018G28KT 1SM -SN OVC003
     FM171000 05020G30KT 1/4SM +SN VV002=



000
FTUS45 KCYS 162257 AAC
TAFLAR
TAF AMD
KLAR 162257Z 1623/1718 34005KT 1SM -SN OVC008
      TEMPO 1623/1624 1/2SM SN VV008
     FM170300 01018G28KT 1SM -SN OVC003
     FM171000 05020G30KT 1/4SM +SN VV002=



000
FTUS45 KCYS 162024 AAB
TAFRWL
TAF AMD
KRWL 162024Z 1620/1718 04012KT 3/4SM -SN OVC007
     FM170300 03020G30KT 1SM -SN OVC004=



000
FTUS45 KCYS 162024 AAB
TAFRWL
TAF AMD
KRWL 162024Z 1620/1718 04012KT 3/4SM -SN OVC007
     FM170300 03020G30KT 1SM -SN OVC004=



000
FTUS45 KCYS 161940 AAA
TAFRWL
TAF AMD
KRWL 161940Z 1620/1718 04018G28KT 6SM -SHSN OVC007
     FM162100 03015G25KT 1SM -SN OVC007
     FM170300 03020G30KT 1SM -SN OVC004=



000
FTUS45 KCYS 161940 AAA
TAFRWL
TAF AMD
KRWL 161940Z 1620/1718 04018G28KT 6SM -SHSN OVC007
     FM162100 03015G25KT 1SM -SN OVC007
     FM170300 03020G30KT 1SM -SN OVC004=



000
FTUS45 KCYS 161940 AAA
TAFRWL
TAF AMD
KRWL 161940Z 1620/1718 04018G28KT 6SM -SHSN OVC007
     FM162100 03015G25KT 1SM -SN OVC007
     FM170300 03020G30KT 1SM -SN OVC004=



000
FTUS45 KCYS 161928 AAB
TAFLAR
TAF AMD
KLAR 161928Z 1619/1718 05012KT 1SM -SN OVC008
     FM170300 01018G28KT 1SM -SN OVC003
     FM171000 05020G30KT 1/4SM +SN VV002=



000
FTUS45 KCYS 161928 AAB
TAFLAR
TAF AMD
KLAR 161928Z 1619/1718 05012KT 1SM -SN OVC008
     FM170300 01018G28KT 1SM -SN OVC003
     FM171000 05020G30KT 1/4SM +SN VV002=



000
FTUS45 KCYS 161928 AAA
TAFLAR
TAF AMD
KLAR 161928Z 1619/1718 01020G30KT 1SM -SN OVC008
     FM170300 01018G28KT 1SM -SN OVC003
     FM171000 05020G30KT 1/4SM +SN VV002=



000
FTUS45 KCYS 161928 AAA
TAFLAR
TAF AMD
KLAR 161928Z 1619/1718 01020G30KT 1SM -SN OVC008
     FM170300 01018G28KT 1SM -SN OVC003
     FM171000 05020G30KT 1/4SM +SN VV002=



000
FTUS45 KCYS 161928 AAA
TAFLAR
TAF AMD
KLAR 161928Z 1619/1718 01020G30KT 1SM -SN OVC008
     FM170300 01018G28KT 1SM -SN OVC003
     FM171000 05020G30KT 1/4SM +SN VV002=



000
FTUS45 KCYS 161928 AAB
TAFLAR
TAF AMD
KLAR 161928Z 1619/1718 05012KT 1SM -SN OVC008
     FM170300 01018G28KT 1SM -SN OVC003
     FM171000 05020G30KT 1/4SM +SN VV002=



000
FTUS45 KCYS 161928 AAB
TAFLAR
TAF AMD
KLAR 161928Z 1619/1718 05012KT 1SM -SN OVC008
     FM170300 01018G28KT 1SM -SN OVC003
     FM171000 05020G30KT 1/4SM +SN VV002=



000
FTUS45 KCYS 161746
TAFLAR
TAF
KLAR 161746Z 1618/1718 01020G30KT 1SM -SN OVC003
      TEMPO 1618/1620 1/4SM +SN
     FM162000 05015KT 1/2SM SN VV002
     FM170300 01018G28KT 1SM -SN OVC003
     FM171000 05020G30KT 1/4SM +SN VV002=



000
FTUS45 KCYS 161746
TAFRWL
TAF
KRWL 161746Z 1618/1718 04018G28KT 6SM -SHSN OVC007
     FM161900 04018G28KT 1SM -SN OVC004
     FM162100 03015G25KT 1/2SM SN VV002
     FM170300 03020G30KT 1SM -SN OVC004=



000
FTUS45 KCYS 161746
TAFCYS
TAF
KCYS 161746Z 1618/1718 03018G28KT 1SM -SN VCTS OVC002CB
      TEMPO 1618/1622 1/4SM +TSSN OVC002CB
     FM162200 04012KT 3SM -RASN OVC003
     FM170900 03015G25KT 1/2SM SN VV002=



000
FTUS45 KCYS 161746
TAFLAR
TAF
KLAR 161746Z 1618/1718 01020G30KT 1SM -SN OVC003
      TEMPO 1618/1620 1/4SM +SN
     FM162000 05015KT 1/2SM SN VV002
     FM170300 01018G28KT 1SM -SN OVC003
     FM171000 05020G30KT 1/4SM +SN VV002=



000
FTUS45 KCYS 161746
TAFCYS
TAF
KCYS 161746Z 1618/1718 03018G28KT 1SM -SN VCTS OVC002CB
      TEMPO 1618/1622 1/4SM +TSSN OVC002CB
     FM162200 04012KT 3SM -RASN OVC003
     FM170900 03015G25KT 1/2SM SN VV002=



000
FTUS45 KCYS 161746
TAFRWL
TAF
KRWL 161746Z 1618/1718 04018G28KT 6SM -SHSN OVC007
     FM161900 04018G28KT 1SM -SN OVC004
     FM162100 03015G25KT 1/2SM SN VV002
     FM170300 03020G30KT 1SM -SN OVC004=



000
FTUS45 KCYS 161536 AAB
TAFLAR
TAF AMD
KLAR 161536Z 1616/1712 36015KT 2SM -SHSN OVC003
     FM162000 04015G25KT 3/4SM -SN OVC003=



000
FTUS45 KCYS 161536 AAB
TAFLAR
TAF AMD
KLAR 161536Z 1616/1712 36015KT 2SM -SHSN OVC003
     FM162000 04015G25KT 3/4SM -SN OVC003=



000
FTUS45 KCYS 161452 AAA
TAFLAR
TAF AMD
KLAR 161452Z 1615/1712 36012G18KT P6SM VCSH BKN008 OVC015
     FM161600 07022G32KT 3SM -SN OVC005
     FM162000 04015G25KT 3/4SM -SN OVC003=



000
FTUS45 KCYS 161140
TAFRWL
TAF
KRWL 161140Z 1612/1712 05014KT P6SM VCSH OVC008
     FM161700 03018G30KT 2SM -SN OVC006
     FM162000 04022G32KT 3/4SM -SN OVC004
     FM170600 03025G35KT 3SM BR VCSH OVC004=



000
FTUS45 KCYS 161140
TAFCYS
TAF
KCYS 161140Z 1612/1712 35020G32KT P6SM VCSH OVC003
     FM161700 02018G28KT 1SM -SN OVC003
     FM170100 03012G20KT 1/2SM -SNRA FG VV002=



000
FTUS45 KCYS 161140
TAFCYS
TAF
KCYS 161140Z 1612/1712 35020G32KT P6SM VCSH OVC003
     FM161700 02018G28KT 1SM -SN OVC003
     FM170100 03012G20KT 1/2SM -SNRA FG VV002=



000
FTUS45 KCYS 161140
TAFLAR
TAF
KLAR 161140Z 1612/1712 02012G20KT P6SM VCSH SCT005 OVC010
     FM161600 07022G32KT 3SM -SN OVC005
     FM162000 04015G25KT 3/4SM -SN OVC003=



000
FTUS45 KCYS 161140
TAFLAR
TAF
KLAR 161140Z 1612/1712 02012G20KT P6SM VCSH SCT005 OVC010
     FM161600 07022G32KT 3SM -SN OVC005
     FM162000 04015G25KT 3/4SM -SN OVC003=



000
FTUS45 KCYS 161140
TAFRWL
TAF
KRWL 161140Z 1612/1712 05014KT P6SM VCSH OVC008
     FM161700 03018G30KT 2SM -SN OVC006
     FM162000 04022G32KT 3/4SM -SN OVC004
     FM170600 03025G35KT 3SM BR VCSH OVC004=



000
FTUS45 KCYS 161140
TAFLAR
TAF
KLAR 161140Z 1612/1712 02012G20KT P6SM VCSH SCT005 OVC010
     FM161600 07022G32KT 3SM -SN OVC005
     FM162000 04015G25KT 3/4SM -SN OVC003=



000
FTUS45 KCYS 161140
TAFCYS
TAF
KCYS 161140Z 1612/1712 35020G32KT P6SM VCSH OVC003
     FM161700 02018G28KT 1SM -SN OVC003
     FM170100 03012G20KT 1/2SM -SNRA FG VV002=



000
FTUS45 KCYS 161140
TAFRWL
TAF
KRWL 161140Z 1612/1712 05014KT P6SM VCSH OVC008
     FM161700 03018G30KT 2SM -SN OVC006
     FM162000 04022G32KT 3/4SM -SN OVC004
     FM170600 03025G35KT 3SM BR VCSH OVC004=



000
FTUS45 KCYS 161140
TAFLAR
TAF
KLAR 161140Z 1612/1712 02012G20KT P6SM VCSH SCT005 OVC010
     FM161600 07022G32KT 3SM -SN OVC005
     FM162000 04015G25KT 3/4SM -SN OVC003=



000
FTUS45 KCYS 161140
TAFRWL
TAF
KRWL 161140Z 1612/1712 05014KT P6SM VCSH OVC008
     FM161700 03018G30KT 2SM -SN OVC006
     FM162000 04022G32KT 3/4SM -SN OVC004
     FM170600 03025G35KT 3SM BR VCSH OVC004=



000
FTUS45 KCYS 161140
TAFCYS
TAF
KCYS 161140Z 1612/1712 35020G32KT P6SM VCSH OVC003
     FM161700 02018G28KT 1SM -SN OVC003
     FM170100 03012G20KT 1/2SM -SNRA FG VV002=



000
FTUS45 KCYS 160841 AAA
TAFRWL
TAF AMD
KRWL 160841Z 1609/1706 04014KT P6SM VCSH OVC009
     FM161200 03012G25KT 5SM -SHSN SCT007 OVC015
     FM161500 03018G30KT 2SM -SN OVC006=



000
FTUS45 KCYS 160841 AAA
TAFRWL
TAF AMD
KRWL 160841Z 1609/1706 04014KT P6SM VCSH OVC009
     FM161200 03012G25KT 5SM -SHSN SCT007 OVC015
     FM161500 03018G30KT 2SM -SN OVC006=



000
FTUS45 KCYS 160841 AAA
TAFRWL
TAF AMD
KRWL 160841Z 1609/1706 04014KT P6SM VCSH OVC009
     FM161200 03012G25KT 5SM -SHSN SCT007 OVC015
     FM161500 03018G30KT 2SM -SN OVC006=



000
FTUS45 KCYS 160841 AAA
TAFRWL
TAF AMD
KRWL 160841Z 1609/1706 04014KT P6SM VCSH OVC009
     FM161200 03012G25KT 5SM -SHSN SCT007 OVC015
     FM161500 03018G30KT 2SM -SN OVC006=



000
FTUS45 KCYS 160707 AAA
TAFCYS
TAF AMD
KCYS 160707Z 1607/1706 36020G32KT P6SM VCSH OVC007
     FM161700 02018G28KT 1SM -SN OVC003
     FM170100 03012G20KT 1/2SM SN VV002=



000
FTUS45 KCYS 160707 AAA
TAFCYS
TAF AMD
KCYS 160707Z 1607/1706 36020G32KT P6SM VCSH OVC007
     FM161700 02018G28KT 1SM -SN OVC003
     FM170100 03012G20KT 1/2SM SN VV002=



000
FTUS45 KCYS 160520
TAFLAR
TAF
KLAR 160520Z 1606/1706 34015KT 6SM -SN BKN007 OVC035
     FM161000 02012G20KT 1SM -SHSN OVC005=



000
FTUS45 KCYS 160520
TAFCYS
TAF
KCYS 160520Z 1606/1706 34025G35KT 3SM -SHSN SCT006 OVC030
     FM160800 01015G22KT 4SM BR VCSH OVC006
     FM161700 02018G28KT 1SM -SN OVC003
     FM170100 03012G20KT 1/2SM SN VV002=



000
FTUS45 KCYS 160520
TAFRWL
TAF
KRWL 160520Z 1606/1706 36010KT 1SM -SHSN SCT007 OVC025
     FM161200 03012G25KT 5SM -SHSN SCT007 OVC015
     FM161500 03018G30KT 2SM -SN OVC006=



000
FTUS45 KCYS 160520
TAFRWL
TAF
KRWL 160520Z 1606/1706 36010KT 1SM -SHSN SCT007 OVC025
     FM161200 03012G25KT 5SM -SHSN SCT007 OVC015
     FM161500 03018G30KT 2SM -SN OVC006=



000
FTUS45 KCYS 160520
TAFLAR
TAF
KLAR 160520Z 1606/1706 34015KT 6SM -SN BKN007 OVC035
     FM161000 02012G20KT 1SM -SHSN OVC005=



000
FTUS45 KCYS 160520
TAFCYS
TAF
KCYS 160520Z 1606/1706 34025G35KT 3SM -SHSN SCT006 OVC030
     FM160800 01015G22KT 4SM BR VCSH OVC006
     FM161700 02018G28KT 1SM -SN OVC003
     FM170100 03012G20KT 1/2SM SN VV002=



000
FTUS45 KCYS 160520
TAFLAR
TAF
KLAR 160520Z 1606/1706 34015KT 6SM -SN BKN007 OVC035
     FM161000 02012G20KT 1SM -SHSN OVC005=



000
FTUS45 KCYS 160520
TAFCYS
TAF
KCYS 160520Z 1606/1706 34025G35KT 3SM -SHSN SCT006 OVC030
     FM160800 01015G22KT 4SM BR VCSH OVC006
     FM161700 02018G28KT 1SM -SN OVC003
     FM170100 03012G20KT 1/2SM SN VV002=



000
FTUS45 KCYS 160520
TAFCYS
TAF
KCYS 160520Z 1606/1706 34025G35KT 3SM -SHSN SCT006 OVC030
     FM160800 01015G22KT 4SM BR VCSH OVC006
     FM161700 02018G28KT 1SM -SN OVC003
     FM170100 03012G20KT 1/2SM SN VV002=



000
FTUS45 KCYS 160520
TAFLAR
TAF
KLAR 160520Z 1606/1706 34015KT 6SM -SN BKN007 OVC035
     FM161000 02012G20KT 1SM -SHSN OVC005=



000
FTUS45 KCYS 160520
TAFRWL
TAF
KRWL 160520Z 1606/1706 36010KT 1SM -SHSN SCT007 OVC025
     FM161200 03012G25KT 5SM -SHSN SCT007 OVC015
     FM161500 03018G30KT 2SM -SN OVC006=



000
FTUS45 KCYS 160520
TAFRWL
TAF
KRWL 160520Z 1606/1706 36010KT 1SM -SHSN SCT007 OVC025
     FM161200 03012G25KT 5SM -SHSN SCT007 OVC015
     FM161500 03018G30KT 2SM -SN OVC006=



000
FTUS45 KCYS 160350 AAB
TAFLAR
TAF AMD
KLAR 160350Z 1604/1624 34015G25KT 6SM -SN BKN007 OVC035
     FM160500 35020G30KT 2SM -SHSN OVC005=



000
FTUS45 KCYS 160350 AAB
TAFLAR
TAF AMD
KLAR 160350Z 1604/1624 34015G25KT 6SM -SN BKN007 OVC035
     FM160500 35020G30KT 2SM -SHSN OVC005=



000
FTUS45 KCYS 160315 AAA
TAFRWL
TAF AMD
KRWL 160315Z 1603/1624 36010KT 2SM -SHSN SCT007 OVC025
     FM160900 03012G25KT 5SM -SHSN SCT007 OVC015
     FM161300 03018G30KT 2SM -SN OVC006=



000
FTUS45 KCYS 160315 AAA
TAFRWL
TAF AMD
KRWL 160315Z 1603/1624 36010KT 2SM -SHSN SCT007 OVC025
     FM160900 03012G25KT 5SM -SHSN SCT007 OVC015
     FM161300 03018G30KT 2SM -SN OVC006=



000
FTUS45 KCYS 160314 AAA
TAFLAR
TAF AMD
KLAR 160314Z 1603/1624 34015G25KT 6SM -SN SCT007 OVC035
     FM160500 35020G30KT 2SM -SHSN OVC005=



000
FTUS45 KCYS 152320
TAFRWL
TAF
KRWL 152320Z 1600/1624 35012KT 6SM -SHSN OVC050
     FM160200 32015G25KT 3SM -SHSN OVC007
     FM160900 03012G25KT 5SM -SHSN SCT007 OVC015
     FM161300 03018G30KT 2SM -SN OVC006=



000
FTUS45 KCYS 152320
TAFRWL
TAF
KRWL 152320Z 1600/1624 35012KT 6SM -SHSN OVC050
     FM160200 32015G25KT 3SM -SHSN OVC007
     FM160900 03012G25KT 5SM -SHSN SCT007 OVC015
     FM161300 03018G30KT 2SM -SN OVC006=



000
FTUS45 KCYS 152320
TAFLAR
TAF
KLAR 152320Z 1600/1624 34015G25KT 1/2SM SN BKN007 OVC015
      TEMPO 1601/1603 3SM -SN SCT007 OVC015
     FM160300 35020G30KT 2SM -SHSN OVC005=



000
FTUS45 KCYS 152320
TAFCYS
TAF
KCYS 152320Z 1600/1624 34025G35KT 3SM -SHSN OVC012
     FM160600 36015G22KT 4SM BR VCSH OVC006
     FM160800 02018G28KT 1SM -SN OVC003=



000
FTUS45 KCYS 152320
TAFLAR
TAF
KLAR 152320Z 1600/1624 34015G25KT 1/2SM SN BKN007 OVC015
      TEMPO 1601/1603 3SM -SN SCT007 OVC015
     FM160300 35020G30KT 2SM -SHSN OVC005=



000
FTUS45 KCYS 152320
TAFCYS
TAF
KCYS 152320Z 1600/1624 34025G35KT 3SM -SHSN OVC012
     FM160600 36015G22KT 4SM BR VCSH OVC006
     FM160800 02018G28KT 1SM -SN OVC003=



000
FTUS45 KCYS 152135 AAB
TAFCYS
TAF AMD
KCYS 152135Z 1522/1618 01015G28KT 6SM -SHRA OVC012
     FM152200 34020G30KT 1/2SM SN VCTS BKN005 OVC012CB
     FM160000 34025G35KT 6SM -SHSN OVC012
     FM160300 35015G25KT 1SM -SN OVC003
     FM160600 36015G22KT 4SM BR VCSH OVC009=



000
FTUS45 KCYS 152135 AAB
TAFCYS
TAF AMD
KCYS 152135Z 1522/1618 01015G28KT 6SM -SHRA OVC012
     FM152200 34020G30KT 1/2SM SN VCTS BKN005 OVC012CB
     FM160000 34025G35KT 6SM -SHSN OVC012
     FM160300 35015G25KT 1SM -SN OVC003
     FM160600 36015G22KT 4SM BR VCSH OVC009=



000
FTUS45 KCYS 152033 AAA
TAFRWL
TAF AMD
KRWL 152033Z 1521/1618 27012KT 6SM -SHSN OVC050
      TEMPO 1521/1524 2SM -SN OVC015
     FM160200 32015G25KT 3SM -SHSN OVC007=



000
FTUS45 KCYS 152033 AAA
TAFRWL
TAF AMD
KRWL 152033Z 1521/1618 27012KT 6SM -SHSN OVC050
      TEMPO 1521/1524 2SM -SN OVC015
     FM160200 32015G25KT 3SM -SHSN OVC007=



000
FTUS45 KCYS 151918 AAA
TAFLAR
TAF AMD
KLAR 151918Z 1519/1618 32020G30KT 1SM -SN VCTS BKN009 OVC015CB
      TEMPO 1519/1522 1/2SM TSSN
     FM160300 35020G30KT 2SM -SHSN OVC005=



000
FTUS45 KCYS 151918 AAA
TAFLAR
TAF AMD
KLAR 151918Z 1519/1618 32020G30KT 1SM -SN VCTS BKN009 OVC015CB
      TEMPO 1519/1522 1/2SM TSSN
     FM160300 35020G30KT 2SM -SHSN OVC005=



000
FTUS45 KCYS 151822 CCA
TAFRWL
TAF COR
KRWL 151822Z 1518/1618 27015G25KT 2SM -SN OVC020
     FM160200 32015G25KT 3SM -SHSN OVC007=



000
FTUS45 KCYS 151822 CCA
TAFRWL
TAF COR
KRWL 151822Z 1518/1618 27015G25KT 2SM -SN OVC020
     FM160200 32015G25KT 3SM -SHSN OVC007=



000
FTUS45 KCYS 151822 CCA
TAFRWL
TAF COR
KRWL 151822Z 1518/1618 27015G25KT 2SM -SN OVC020
     FM160200 32015G25KT 3SM -SHSN OVC007=



000
FTUS45 KCYS 151822 CCA
TAFRWL
TAF COR
KRWL 151822Z 1518/1618 27015G25KT 2SM -SN OVC020
     FM160200 32015G25KT 3SM -SHSN OVC007=



000
FTUS45 KCYS 151803 CCA
TAFLAR
TAF COR
KLAR 151803Z 1518/1618 03015G22KT P6SM VCTS SCT020 OVC050CB
     FM152200 33015G25KT 3SM -SHSN OVC020
     FM160300 35020G30KT 2SM -SHSN OVC005=



000
FTUS45 KCYS 151803 CCA
TAFLAR
TAF COR
KLAR 151803Z 1518/1618 03015G22KT P6SM VCTS SCT020 OVC050CB
     FM152200 33015G25KT 3SM -SHSN OVC020
     FM160300 35020G30KT 2SM -SHSN OVC005=



000
FTUS45 KCYS 151803 CCA
TAFLAR
TAF COR
KLAR 151803Z 1518/1618 03015G22KT P6SM VCTS SCT020 OVC050CB
     FM152200 33015G25KT 3SM -SHSN OVC020
     FM160300 35020G30KT 2SM -SHSN OVC005=



000
FTUS45 KCYS 151803 CCA
TAFLAR
TAF COR
KLAR 151803Z 1518/1618 03015G22KT P6SM VCTS SCT020 OVC050CB
     FM152200 33015G25KT 3SM -SHSN OVC020
     FM160300 35020G30KT 2SM -SHSN OVC005=



000
FTUS45 KCYS 151743
TAFCYS
TAF
KCYS 151743Z 1518/1618 01015G28KT 6SM -SHRA OVC020
     FM152100 34020G30KT 4SM -RASN SCT005 OVC015
     FM160300 35015G25KT 1SM -SN OVC003
     FM160600 36015G22KT 4SM BR VCSH OVC009=



000
FTUS45 KCYS 151743
TAFRWL
TAF
KRWL 151743Z 1518/1618 27015G25KT 1SM -SN OVC020
      TEMPO 1518/1522 1/2SM SN
     FM160200 32015G25KT 3SM -SHSN OVC007=



000
FTUS45 KCYS 151743
TAFCYS
TAF
KCYS 151743Z 1518/1618 01015G28KT 6SM -SHRA OVC020
     FM152100 34020G30KT 4SM -RASN SCT005 OVC015
     FM160300 35015G25KT 1SM -SN OVC003
     FM160600 36015G22KT 4SM BR VCSH OVC009=



000
FTUS45 KCYS 151743
TAFLAR
TAF
KLAR 151743Z 1518/1618 35015G22KT 6SM -SHSN OVC020
     FM151900 32015G25KT 1SM -SN OVC005
     FM160300 35020G30KT 2SM -SHSN OVC005=



000
FTUS45 KCYS 151743
TAFLAR
TAF
KLAR 151743Z 1518/1618 35015G22KT 6SM -SHSN OVC020
     FM151900 32015G25KT 1SM -SN OVC005
     FM160300 35020G30KT 2SM -SHSN OVC005=



000
FTUS45 KCYS 151743
TAFCYS
TAF
KCYS 151743Z 1518/1618 01015G28KT 6SM -SHRA OVC020
     FM152100 34020G30KT 4SM -RASN SCT005 OVC015
     FM160300 35015G25KT 1SM -SN OVC003
     FM160600 36015G22KT 4SM BR VCSH OVC009=



000
FTUS45 KCYS 151743
TAFRWL
TAF
KRWL 151743Z 1518/1618 27015G25KT 1SM -SN OVC020
      TEMPO 1518/1522 1/2SM SN
     FM160200 32015G25KT 3SM -SHSN OVC007=



000
FTUS45 KCYS 151743
TAFRWL
TAF
KRWL 151743Z 1518/1618 27015G25KT 1SM -SN OVC020
      TEMPO 1518/1522 1/2SM SN
     FM160200 32015G25KT 3SM -SHSN OVC007=



000
FTUS45 KCYS 151743
TAFRWL
TAF
KRWL 151743Z 1518/1618 27015G25KT 1SM -SN OVC020
      TEMPO 1518/1522 1/2SM SN
     FM160200 32015G25KT 3SM -SHSN OVC007=



000
FTUS45 KCYS 151743
TAFLAR
TAF
KLAR 151743Z 1518/1618 35015G22KT 6SM -SHSN OVC020
     FM151900 32015G25KT 1SM -SN OVC005
     FM160300 35020G30KT 2SM -SHSN OVC005=



000
FTUS45 KCYS 151743
TAFCYS
TAF
KCYS 151743Z 1518/1618 01015G28KT 6SM -SHRA OVC020
     FM152100 34020G30KT 4SM -RASN SCT005 OVC015
     FM160300 35015G25KT 1SM -SN OVC003
     FM160600 36015G22KT 4SM BR VCSH OVC009=



000
FTUS45 KCYS 151743
TAFLAR
TAF
KLAR 151743Z 1518/1618 35015G22KT 6SM -SHSN OVC020
     FM151900 32015G25KT 1SM -SN OVC005
     FM160300 35020G30KT 2SM -SHSN OVC005=



000
FTUS45 KCYS 151603 AAA
TAFLAR
TAF AMD
KLAR 151603Z 1516/1612 36012G20KT 5SM -RASN BKN015
     FM160100 33010KT 3SM -SN SCT008 BKN015=



000
FTUS45 KCYS 151603 AAA
TAFLAR
TAF AMD
KLAR 151603Z 1516/1612 36012G20KT 5SM -RASN BKN015
     FM160100 33010KT 3SM -SN SCT008 BKN015=



000
FTUS45 KCYS 151459 AAA
TAFRWL
TAF AMD
KRWL 151459Z 1515/1612 29012KT 2SM -SN OVC009
     FM160200 32007KT 4SM -SHSN SCT015 BKN025=



000
FTUS45 KCYS 151459 AAA
TAFRWL
TAF AMD
KRWL 151459Z 1515/1612 29012KT 2SM -SN OVC009
     FM160200 32007KT 4SM -SHSN SCT015 BKN025=



000
FTUS45 KCYS 151140
TAFCYS
TAF
KCYS 151140Z 1512/1612 32008KT P6SM BKN150
     FM151700 35014G24KT P6SM BKN150
     FM152100 35015G25KT P6SM -SHRA SCT025 OVC035
     FM160300 34020G32KT 4SM -SNRA SCT015 BKN025
     FM160500 34015KT 2SM -SN SCT008 BKN015=



000
FTUS45 KCYS 151140
TAFLAR
TAF
KLAR 151140Z 1512/1612 32010KT P6SM BKN150
     FM152000 32015G25KT 5SM -SNRA SCT015 BKN025
     FM160100 33010KT 3SM -SN SCT008 BKN015=



000
FTUS45 KCYS 151140
TAFRWL
TAF
KRWL 151140Z 1512/1612 25010KT P6SM VCSH OVC010
     FM151700 29012G24KT P6SM VCSH SCT020 BKN035
     FM160200 32007KT 4SM -SHSN SCT015 BKN025=



000
FTUS45 KCYS 151140
TAFRWL
TAF
KRWL 151140Z 1512/1612 25010KT P6SM VCSH OVC010
     FM151700 29012G24KT P6SM VCSH SCT020 BKN035
     FM160200 32007KT 4SM -SHSN SCT015 BKN025=



000
FTUS45 KCYS 151140
TAFLAR
TAF
KLAR 151140Z 1512/1612 32010KT P6SM BKN150
     FM152000 32015G25KT 5SM -SNRA SCT015 BKN025
     FM160100 33010KT 3SM -SN SCT008 BKN015=



000
FTUS45 KCYS 151140
TAFRWL
TAF
KRWL 151140Z 1512/1612 25010KT P6SM VCSH OVC010
     FM151700 29012G24KT P6SM VCSH SCT020 BKN035
     FM160200 32007KT 4SM -SHSN SCT015 BKN025=



000
FTUS45 KCYS 151140
TAFLAR
TAF
KLAR 151140Z 1512/1612 32010KT P6SM BKN150
     FM152000 32015G25KT 5SM -SNRA SCT015 BKN025
     FM160100 33010KT 3SM -SN SCT008 BKN015=



000
FTUS45 KCYS 151140
TAFCYS
TAF
KCYS 151140Z 1512/1612 32008KT P6SM BKN150
     FM151700 35014G24KT P6SM BKN150
     FM152100 35015G25KT P6SM -SHRA SCT025 OVC035
     FM160300 34020G32KT 4SM -SNRA SCT015 BKN025
     FM160500 34015KT 2SM -SN SCT008 BKN015=



000
FTUS45 KCYS 151140
TAFLAR
TAF
KLAR 151140Z 1512/1612 32010KT P6SM BKN150
     FM152000 32015G25KT 5SM -SNRA SCT015 BKN025
     FM160100 33010KT 3SM -SN SCT008 BKN015=



000
FTUS45 KCYS 151140
TAFCYS
TAF
KCYS 151140Z 1512/1612 32008KT P6SM BKN150
     FM151700 35014G24KT P6SM BKN150
     FM152100 35015G25KT P6SM -SHRA SCT025 OVC035
     FM160300 34020G32KT 4SM -SNRA SCT015 BKN025
     FM160500 34015KT 2SM -SN SCT008 BKN015=



000
FTUS45 KCYS 151140
TAFCYS
TAF
KCYS 151140Z 1512/1612 32008KT P6SM BKN150
     FM151700 35014G24KT P6SM BKN150
     FM152100 35015G25KT P6SM -SHRA SCT025 OVC035
     FM160300 34020G32KT 4SM -SNRA SCT015 BKN025
     FM160500 34015KT 2SM -SN SCT008 BKN015=



000
FTUS45 KCYS 150918 AAB
TAFRWL
TAF AMD
KRWL 150918Z 1509/1606 25010KT P6SM VCSH OVC008
      TEMPO 1509/1512 2SM -SN
     FM151500 24016G28KT P6SM BKN080
     FM152100 31018G30KT P6SM VCSH BKN045
     FM160200 32007KT P6SM OVC035=



000
FTUS45 KCYS 150918 AAB
TAFRWL
TAF AMD
KRWL 150918Z 1509/1606 25010KT P6SM VCSH OVC008
      TEMPO 1509/1512 2SM -SN
     FM151500 24016G28KT P6SM BKN080
     FM152100 31018G30KT P6SM VCSH BKN045
     FM160200 32007KT P6SM OVC035=



000
FTUS45 KCYS 150918 AAB
TAFRWL
TAF AMD
KRWL 150918Z 1509/1606 25010KT P6SM VCSH OVC008
      TEMPO 1509/1512 2SM -SN
     FM151500 24016G28KT P6SM BKN080
     FM152100 31018G30KT P6SM VCSH BKN045
     FM160200 32007KT P6SM OVC035=



000
FTUS45 KCYS 150918 AAB
TAFRWL
TAF AMD
KRWL 150918Z 1509/1606 25010KT P6SM VCSH OVC008
      TEMPO 1509/1512 2SM -SN
     FM151500 24016G28KT P6SM BKN080
     FM152100 31018G30KT P6SM VCSH BKN045
     FM160200 32007KT P6SM OVC035=



000
FTUS45 KCYS 150743 AAA
TAFRWL
TAF AMD
KRWL 150743Z 1508/1606 25018G30KT P6SM VCSH SCT025 BKN040
      TEMPO 1508/1512 2SM -SN BKN025
     FM151500 24016G28KT P6SM BKN080
     FM152100 31018G30KT P6SM VCSH BKN045
     FM160200 32007KT P6SM OVC035=



000
FTUS45 KCYS 150743 AAA
TAFRWL
TAF AMD
KRWL 150743Z 1508/1606 25018G30KT P6SM VCSH SCT025 BKN040
      TEMPO 1508/1512 2SM -SN BKN025
     FM151500 24016G28KT P6SM BKN080
     FM152100 31018G30KT P6SM VCSH BKN045
     FM160200 32007KT P6SM OVC035=



000
FTUS45 KCYS 150520
TAFCYS
TAF
KCYS 150520Z 1506/1606 17020G31KT P6SM SKC
     FM150800 19010KT P6SM BKN120
     FM151100 28010KT P6SM BKN120
     FM151500 30022G33KT P6SM BKN120
     FM151900 35020G30KT P6SM OVC050
     FM152100 03012G23KT 4SM -SHRA OVC035
     FM160100 34020KT P6SM OVC025=



000
FTUS45 KCYS 150520
TAFRWL
TAF
KRWL 150520Z 1506/1606 28022G34KT P6SM VCSH BKN060
     FM150900 25018G30KT P6SM VCSH OVC040
     FM151500 24016G28KT P6SM BKN080
     FM152100 31018G30KT P6SM VCSH BKN045
     FM160200 32007KT P6SM OVC035=



000
FTUS45 KCYS 150520
TAFRWL
TAF
KRWL 150520Z 1506/1606 28022G34KT P6SM VCSH BKN060
     FM150900 25018G30KT P6SM VCSH OVC040
     FM151500 24016G28KT P6SM BKN080
     FM152100 31018G30KT P6SM VCSH BKN045
     FM160200 32007KT P6SM OVC035=



000
FTUS45 KCYS 150520
TAFLAR
TAF
KLAR 150520Z 1506/1606 18012KT P6SM SCT130
     FM150800 20011G22KT P6SM BKN090
     FM151500 26015G25KT P6SM BKN070
     FM152000 31014G25KT P6SM VCSH OVC045
     FM160200 33010G20KT P6SM OVC035=



000
FTUS45 KCYS 150520
TAFCYS
TAF
KCYS 150520Z 1506/1606 17020G31KT P6SM SKC
     FM150800 19010KT P6SM BKN120
     FM151100 28010KT P6SM BKN120
     FM151500 30022G33KT P6SM BKN120
     FM151900 35020G30KT P6SM OVC050
     FM152100 03012G23KT 4SM -SHRA OVC035
     FM160100 34020KT P6SM OVC025=



000
FTUS45 KCYS 150520
TAFLAR
TAF
KLAR 150520Z 1506/1606 18012KT P6SM SCT130
     FM150800 20011G22KT P6SM BKN090
     FM151500 26015G25KT P6SM BKN070
     FM152000 31014G25KT P6SM VCSH OVC045
     FM160200 33010G20KT P6SM OVC035=



    US Dept of Commerce
    National Oceanic and Atmospheric Administration
    National Weather Service
    1325 East West Highway
    Silver Spring, MD 20910
    Page Author: NWS Internet Services Team
Disclaimer
Information Quality
Credits
Glossary
Privacy Policy
Freedom of Information Act (FOIA)
About Us
Career Opportunities